| time (UTC) | temp F | wind direction | speed MPH | gust MPH | rain 1hr in | rain 24hr in | rain mn in | humidity % | barometer mb |
| 20260508013051 | 48 | 0 | 0.0 | 0.0 | 0.00 | 0.01 | 0.01 | 78 | 1009.2 |
| 20260508011549 | 49 | 0 | 0.0 | 0.0 | 0.00 | 0.01 | 0.01 | 75 | 1009.2 |
| 20260508010053 | 51 | 0 | 0.0 | 0.0 | 0.00 | 0.01 | 0.01 | 73 | 1009.0 |
| 20260508004557 | 52 | 0 | 0.0 | 0.0 | 0.00 | 0.01 | 0.01 | 71 | 1009.0 |
| 20260508003056 | 53 | 0 | 0.0 | 0.0 | 0.00 | 0.01 | 0.01 | 69 | 1008.8 |
| 20260508001554 | 54 | 0 | 0.0 | 2.0 | 0.00 | 0.01 | 0.01 | 68 | 1008.9 |
| 20260508000051 | 54 | 0 | 0.0 | 2.0 | 0.00 | 0.01 | 0.01 | 69 | 1008.8 |
| 20260507234559 | 54 | 360 | 0.0 | 4.0 | 0.00 | 0.01 | 0.01 | 68 | 1009.0 |
| 20260507233050 | 54 | 360 | 0.0 | 2.0 | 0.00 | 0.01 | 0.01 | 74 | 1009.1 |
| 20260507231558 | 53 | 0 | 0.0 | 2.0 | 0.01 | 0.01 | 0.01 | 79 | 1009.0 |
| 20260507230058 | 53 | 0 | 0.0 | 0.0 | 0.01 | 0.01 | 0.01 | 80 | 1009.2 |
| 20260507224555 | 53 | 0 | 0.0 | 0.0 | 0.01 | 0.01 | 0.01 | 77 | 1009.5 |
| 20260507223057 | 53 | 0 | 0.0 | 2.0 | 0.01 | 0.01 | 0.01 | 77 | 1009.4 |
| 20260507221552 | 54 | 0 | 0.0 | 3.0 | 0.00 | 0.00 | 0.00 | 70 | 1010.0 |
| 20260507220051 | 58 | 360 | 3.0 | 9.0 | 0.00 | 0.00 | 0.00 | 54 | 1009.9 |
| 20260507214557 | 59 | 360 | 3.0 | 14.0 | 0.00 | 0.00 | 0.00 | 53 | 1009.1 |
| 20260507213054 | 60 | 360 | 3.0 | 14.0 | 0.00 | 0.00 | 0.00 | 51 | 1009.2 |
| 20260507211551 | 61 | 360 | 3.0 | 13.0 | 0.00 | 0.00 | 0.00 | 49 | 1009.2 |
| 20260507210057 | 61 | 360 | 4.0 | 16.0 | 0.00 | 0.00 | 0.00 | 51 | 1009.5 |
| 20260507204551 | 61 | 360 | 3.0 | 12.0 | 0.00 | 0.00 | 0.00 | 51 | 1009.3 |
| 20260507203101 | 60 | 360 | 4.0 | 16.0 | 0.00 | 0.00 | 0.00 | 50 | 1009.5 |
| 20260507201604 | 60 | 360 | 6.0 | 17.0 | 0.00 | 0.00 | 0.00 | 52 | 1009.8 |
| 20260507200052 | 59 | 360 | 5.0 | 15.0 | 0.00 | 0.00 | 0.00 | 55 | 1010.0 |
| 20260507194553 | 59 | 360 | 5.0 | 20.0 | 0.00 | 0.00 | 0.00 | 54 | 1010.7 |
| 20260507193058 | 58 | 360 | 4.0 | 14.0 | 0.00 | 0.00 | 0.00 | 55 | 1010.8 |
| 20260507191557 | 58 | 360 | 5.0 | 14.0 | 0.00 | 0.00 | 0.00 | 56 | 1010.9 |
| 20260507190054 | 58 | 360 | 4.0 | 18.0 | 0.00 | 0.00 | 0.00 | 56 | 1011.1 |
| 20260507184550 | 58 | 360 | 5.0 | 15.0 | 0.00 | 0.00 | 0.00 | 53 | 1011.1 |
| 20260507183054 | 58 | 360 | 6.0 | 14.0 | 0.00 | 0.00 | 0.00 | 47 | 1011.3 |
| 20260507181552 | 59 | 360 | 5.0 | 14.0 | 0.00 | 0.00 | 0.00 | 43 | 1011.2 |
| 20260507180047 | 58 | 0 | 3.0 | 15.0 | 0.00 | 0.00 | 0.00 | 46 | 1011.4 |
| 20260507174604 | 59 | 360 | 5.0 | 15.0 | 0.00 | 0.00 | 0.00 | 40 | 1011.7 |
| 20260507173058 | 59 | 360 | 5.0 | 14.0 | 0.00 | 0.00 | 0.00 | 41 | 1011.8 |
| 20260507171611 | 58 | 360 | 2.0 | 11.0 | 0.00 | 0.00 | 0.00 | 44 | 1012.1 |
| 20260507170058 | 57 | 360 | 3.0 | 11.0 | 0.00 | 0.00 | 0.00 | 45 | 1012.6 |
| 20260507164604 | 58 | 360 | 5.0 | 14.0 | 0.00 | 0.00 | 0.00 | 41 | 1012.8 |
| 20260507163049 | 59 | 360 | 2.0 | 10.0 | 0.00 | 0.00 | 0.00 | 45 | 1012.9 |
| 20260507161553 | 57 | 360 | 4.0 | 11.0 | 0.00 | 0.00 | 0.00 | 44 | 1013.3 |
| 20260507160059 | 56 | 360 | 2.0 | 9.0 | 0.00 | 0.00 | 0.00 | 43 | 1013.4 |
| 20260507154551 | 56 | 360 | 3.0 | 8.0 | 0.00 | 0.00 | 0.00 | 43 | 1013.5 |
| 20260507153050 | 56 | 360 | 1.0 | 6.0 | 0.00 | 0.00 | 0.00 | 45 | 1013.6 |
| 20260507151554 | 55 | 360 | 2.0 | 8.0 | 0.00 | 0.00 | 0.00 | 46 | 1013.8 |
| 20260507150059 | 54 | 360 | 2.0 | 6.0 | 0.00 | 0.00 | 0.00 | 45 | 1013.9 |
| 20260507144550 | 53 | 360 | 3.0 | 8.0 | 0.00 | 0.00 | 0.00 | 47 | 1014.1 |
| 20260507143103 | 52 | 360 | 2.0 | 9.0 | 0.00 | 0.00 | 0.00 | 49 | 1014.4 |
| 20260507141555 | 51 | 360 | 2.0 | 8.0 | 0.00 | 0.00 | 0.00 | 51 | 1014.4 |
| 20260507140051 | 50 | 0 | 2.0 | 6.0 | 0.00 | 0.00 | 0.00 | 52 | 1014.4 |
| 20260507134556 | 49 | 360 | 2.0 | 5.0 | 0.00 | 0.00 | 0.00 | 54 | 1014.7 |
| 20260507133058 | 48 | 360 | 1.0 | 6.0 | 0.00 | 0.00 | 0.00 | 58 | 1014.9 |
| 20260507131613 | 47 | 360 | 2.0 | 6.0 | 0.00 | 0.00 | 0.00 | 63 | 1015.0 |
| 20260507130055 | 45 | 360 | 1.0 | 6.0 | 0.00 | 0.00 | 0.00 | 73 | 1015.0 |
| 20260507124555 | 42 | 0 | 0.0 | 2.0 | 0.00 | 0.00 | 0.00 | 89 | 1014.9 |
| 20260507123056 | 39 | 360 | 1.0 | 2.0 | 0.00 | 0.00 | 0.00 | 91 | 1014.7 |
| 20260507121558 | 37 | 0 | 0.0 | 0.0 | 0.00 | 0.00 | 0.00 | 92 | 1014.6 |
| 20260507120052 | 35 | 0 | 0.0 | 0.0 | 0.00 | 0.00 | 0.00 | 93 | 1014.4 |
| 20260507114551 | 32 | 0 | 0.0 | 0.0 | 0.00 | 0.00 | 0.00 | 92 | 1014.5 |
| 20260507113052 | 31 | 0 | 0.0 | 0.0 | 0.00 | 0.00 | 0.00 | 92 | 1014.5 |
| 20260507111550 | 30 | 0 | 0.0 | 0.0 | 0.00 | 0.00 | 0.00 | 91 | 1014.3 |
| 20260507110106 | 30 | 0 | 0.0 | 0.0 | 0.00 | 0.00 | 0.00 | 90 | 1014.3 |
| 20260507104554 | 30 | 0 | 0.0 | 0.0 | 0.00 | 0.00 | 0.00 | 90 | 1014.3 |
| 20260507103055 | 29 | 0 | 0.0 | 0.0 | 0.00 | 0.00 | 0.00 | 90 | 1014.6 |
| 20260507101554 | 30 | 0 | 0.0 | 0.0 | 0.00 | 0.00 | 0.00 | 90 | 1014.4 |
| 20260507100054 | 30 | 0 | 0.0 | 0.0 | 0.00 | 0.00 | 0.00 | 89 | 1014.3 |
| 20260507094607 | 30 | 0 | 0.0 | 0.0 | 0.00 | 0.00 | 0.00 | 89 | 1014.5 |
| 20260507093101 | 30 | 0 | 0.0 | 0.0 | 0.00 | 0.00 | 0.00 | 89 | 1014.4 |
| 20260507091641 | 30 | 0 | 0.0 | 0.0 | 0.00 | 0.00 | 0.00 | 88 | 1014.5 |
| 20260507090107 | 30 | 0 | 0.0 | 0.0 | 0.00 | 0.00 | 0.00 | 88 | 1014.4 |
| 20260507084557 | 30 | 0 | 0.0 | 0.0 | 0.00 | 0.00 | 0.00 | 88 | 1014.6 |
| 20260507083053 | 31 | 0 | 0.0 | 0.0 | 0.00 | 0.00 | 0.00 | 87 | 1014.6 |
| 20260507081555 | 31 | 0 | 0.0 | 0.0 | 0.00 | 0.00 | 0.00 | 87 | 1014.4 |
| 20260507080056 | 31 | 0 | 0.0 | 0.0 | 0.00 | 0.00 | 0.00 | 86 | 1014.4 |
| 20260507074557 | 31 | 0 | 0.0 | 0.0 | 0.00 | 0.00 | 0.00 | 86 | 1014.4 |
| 20260507073051 | 32 | 0 | 0.0 | 0.0 | 0.00 | 0.00 | 0.00 | 85 | 1014.6 |
| 20260507071556 | 32 | 0 | 0.0 | 0.0 | 0.00 | 0.00 | 0.00 | 85 | 1014.4 |
| 20260507070100 | 32 | 0 | 0.0 | 0.0 | 0.00 | 0.00 | 0.00 | 84 | 1014.7 |
| 20260507064552 | 32 | 0 | 0.0 | 0.0 | 0.00 | 0.00 | 0.00 | 83 | 1014.8 |
| 20260507063054 | 33 | 0 | 0.0 | 0.0 | 0.00 | 0.00 | 0.00 | 82 | 1014.8 |
| 20260507061552 | 33 | 0 | 0.0 | 0.0 | 0.00 | 0.00 | 0.00 | 81 | 1014.9 |
| 20260507060105 | 34 | 0 | 0.0 | 0.0 | 0.00 | 0.00 | 0.00 | 80 | 1014.8 |
| 20260507054556 | 34 | 0 | 0.0 | 0.0 | 0.00 | 0.00 | 0.00 | 80 | 1015.0 |
| 20260507053054 | 35 | 0 | 0.0 | 0.0 | 0.00 | 0.00 | 0.00 | 77 | 1014.9 |
| 20260507051552 | 35 | 0 | 0.0 | 0.0 | 0.00 | 0.00 | 0.00 | 76 | 1014.9 |
| 20260507050054 | 36 | 0 | 0.0 | 0.0 | 0.00 | 0.00 | 0.00 | 72 | 1015.0 |
| 20260507044555 | 37 | 0 | 0.0 | 0.0 | 0.00 | 0.00 | 0.00 | 70 | 1014.9 |
| 20260507043053 | 38 | 0 | 0.0 | 0.0 | 0.00 | 0.00 | 0.00 | 69 | 1014.9 |
| 20260507041551 | 39 | 0 | 0.0 | 0.0 | 0.00 | 0.00 | 0.00 | 67 | 1014.7 |
| 20260507040052 | 39 | 0 | 0.0 | 0.0 | 0.00 | 0.00 | 0.00 | 66 | 1014.8 |
| 20260507034559 | 40 | 0 | 0.0 | 0.0 | 0.00 | 0.00 | 0.00 | 64 | 1014.7 |
| 20260507033053 | 40 | 0 | 0.0 | 0.0 | 0.00 | 0.00 | 0.00 | 63 | 1014.7 |
| 20260507031552 | 41 | 0 | 0.0 | 0.0 | 0.00 | 0.00 | 0.00 | 62 | 1014.7 |
| 20260507030054 | 41 | 0 | 0.0 | 0.0 | 0.00 | 0.00 | 0.00 | 60 | 1014.7 |
| 20260507024558 | 42 | 0 | 0.0 | 0.0 | 0.00 | 0.00 | 0.00 | 60 | 1014.7 |
| 20260507023050 | 43 | 0 | 0.0 | 0.0 | 0.00 | 0.00 | 0.00 | 57 | 1014.7 |
| 20260507021552 | 44 | 0 | 0.0 | 0.0 | 0.00 | 0.00 | 0.00 | 55 | 1014.4 |
| 20260507020054 | 45 | 0 | 0.0 | 3.0 | 0.00 | 0.00 | 0.00 | 53 | 1014.1 |
| 20260507014553 | 46 | 0 | 0.0 | 1.0 | 0.00 | 0.00 | 0.00 | 51 | 1013.9 |